createdAt,value
2019-01-26T00:00:16.377Z,50.49
2019-01-26T00:00:54.432Z,50.71
2019-01-26T00:01:30.762Z,50.91
2019-01-26T00:02:08.314Z,51.12
2019-01-26T00:02:44.527Z,51.14
2019-01-26T00:03:20.982Z,51.20
2019-01-26T00:03:57.381Z,51.42
2019-01-26T00:04:33.643Z,51.28
2019-01-26T00:05:10.414Z,51.00
2019-01-26T00:05:46.749Z,50.72
2019-01-26T00:06:23.006Z,50.70
2019-01-26T00:06:59.153Z,50.57
2019-01-26T00:07:35.306Z,50.52
2019-01-26T00:08:11.456Z,50.71
2019-01-26T00:08:47.638Z,50.93
2019-01-26T00:09:23.948Z,51.11
2019-01-26T00:10:00.185Z,51.11
2019-01-26T00:10:36.543Z,51.00
2019-01-26T00:11:47.060Z,50.77
2019-01-26T00:12:23.273Z,50.78
2019-01-26T00:12:59.379Z,50.35
2019-01-26T00:13:35.561Z,50.10
2019-01-26T00:14:11.704Z,50.10
2019-01-26T00:14:48.054Z,50.26
2019-01-26T00:15:24.227Z,50.54
2019-01-26T00:16:00.422Z,50.67
2019-01-26T00:16:36.561Z,50.80
2019-01-26T00:17:12.626Z,50.76
2019-01-26T00:17:48.777Z,50.77
2019-01-26T00:18:24.932Z,50.69
2019-01-26T00:19:01.206Z,50.66
2019-01-26T00:19:37.291Z,50.50
2019-01-26T00:20:13.612Z,50.35
2019-01-26T00:20:49.713Z,50.31
2019-01-26T00:21:25.955Z,50.23
2019-01-26T00:22:02.201Z,50.12
2019-01-26T00:22:38.412Z,50.17
2019-01-26T00:23:14.666Z,50.12
2019-01-26T00:23:50.986Z,49.80
2019-01-26T00:24:27.712Z,49.67
2019-01-26T00:25:03.778Z,49.65
2019-01-26T00:25:39.951Z,49.65
2019-01-26T00:26:16.192Z,49.71
2019-01-26T00:26:52.348Z,49.81
2019-01-26T00:27:28.587Z,49.88
2019-01-26T00:28:04.645Z,49.93
2019-01-26T00:28:40.807Z,50.03
2019-01-26T00:29:17.044Z,50.19
2019-01-26T00:29:53.294Z,50.24
2019-01-26T00:30:29.541Z,50.45
2019-01-26T00:31:05.765Z,49.91
2019-01-26T00:31:41.788Z,49.72
2019-01-26T00:32:17.783Z,49.58
2019-01-26T00:32:53.912Z,48.97
2019-01-26T00:33:30.086Z,48.31
2019-01-26T00:34:06.494Z,48.20
2019-01-26T00:34:42.595Z,48.09
2019-01-26T00:35:18.804Z,48.08
2019-01-26T00:35:55.020Z,48.04
2019-01-26T00:36:31.009Z,48.07
2019-01-26T00:37:07.507Z,48.29
2019-01-26T00:37:43.776Z,48.36
2019-01-26T00:38:20.028Z,48.46
2019-01-26T00:38:56.069Z,48.01
2019-01-26T00:39:32.316Z,47.60
2019-01-26T00:40:09.080Z,47.11
2019-01-26T00:40:45.022Z,47.09
2019-01-26T00:41:21.127Z,47.11
2019-01-26T00:41:57.224Z,47.15
2019-01-26T00:42:33.290Z,47.16
2019-01-26T00:43:09.418Z,47.32
2019-01-26T00:43:45.514Z,47.44
2019-01-26T00:44:21.701Z,47.27
2019-01-26T00:44:57.960Z,47.13
2019-01-26T00:45:34.220Z,47.56
2019-01-26T00:46:10.439Z,47.56
2019-01-26T00:46:46.524Z,47.77
2019-01-26T00:47:22.675Z,48.06
2019-01-26T00:47:58.771Z,48.03
2019-01-26T00:48:34.998Z,48.00
2019-01-26T00:49:11.167Z,47.89
2019-01-26T00:49:47.504Z,47.83
2019-01-26T00:50:23.709Z,47.77
2019-01-26T00:50:59.985Z,47.72
2019-01-26T00:51:36.252Z,47.72
2019-01-26T00:52:12.265Z,47.07
2019-01-26T00:52:48.595Z,47.07
2019-01-26T00:53:24.802Z,46.70
2019-01-26T00:54:01.158Z,46.73
2019-01-26T00:54:37.437Z,46.75
2019-01-26T00:55:13.846Z,46.76
2019-01-26T00:55:50.055Z,46.86
2019-01-26T00:56:26.398Z,47.10
2019-01-26T00:57:02.606Z,47.25
2019-01-26T00:57:38.641Z,47.23
2019-01-26T00:58:14.942Z,47.23
2019-01-26T00:58:51.091Z,46.41
2019-01-26T00:59:27.581Z,45.69
2019-01-26T01:00:03.898Z,45.69
2019-01-26T01:00:40.111Z,45.76
2019-01-26T01:01:16.250Z,45.72
2019-01-26T01:01:52.481Z,45.72
2019-01-26T01:02:28.591Z,45.93
2019-01-26T01:03:05.102Z,45.44
2019-01-26T01:03:41.457Z,45.25
2019-01-26T01:04:17.621Z,45.33
2019-01-26T01:04:53.832Z,45.51
2019-01-26T01:05:30.175Z,45.27
2019-01-26T01:06:06.337Z,45.27
2019-01-26T01:06:42.635Z,45.05
2019-01-26T01:07:18.783Z,45.05
2019-01-26T01:07:55.039Z,45.26
2019-01-26T01:08:31.285Z,45.45
2019-01-26T01:09:10.811Z,45.56
2019-01-26T01:09:47.179Z,45.76
2019-01-26T01:10:23.523Z,45.76
2019-01-26T01:10:59.595Z,45.23
2019-01-26T01:11:35.804Z,44.96
2019-01-26T01:12:11.912Z,44.81
2019-01-26T01:12:48.023Z,44.93
2019-01-26T01:13:24.177Z,44.75
2019-01-26T01:14:00.290Z,44.87
2019-01-26T01:14:36.362Z,44.70
2019-01-26T01:15:13.408Z,44.50
2019-01-26T01:15:49.629Z,44.56
2019-01-26T01:16:25.699Z,44.38
2019-01-26T01:17:01.830Z,44.38
2019-01-26T01:17:38.028Z,44.18
2019-01-26T01:18:14.253Z,44.26
2019-01-26T01:18:50.319Z,44.02
2019-01-26T01:19:26.525Z,43.25
2019-01-26T01:24:40.937Z,42.72
2019-01-26T01:25:17.241Z,42.61
2019-01-26T01:25:53.632Z,42.43
2019-01-26T01:26:29.907Z,42.43
2019-01-26T01:27:06.429Z,42.80
2019-01-26T01:27:42.789Z,42.91
2019-01-26T01:28:18.946Z,43.19
2019-01-26T01:28:55.262Z,43.19
2019-01-26T01:29:31.431Z,43.28
2019-01-26T01:30:10.069Z,43.39
2019-01-26T01:30:46.488Z,43.39
2019-01-26T01:34:19.402Z,43.08
2019-01-26T01:34:55.789Z,43.21
2019-01-26T01:35:32.071Z,43.09
2019-01-26T01:36:08.458Z,43.09
2019-01-26T01:36:44.665Z,42.66
2019-01-26T01:37:20.823Z,41.56
2019-01-26T01:37:57.086Z,41.56
2019-01-26T01:38:33.315Z,41.50
2019-01-26T01:39:11.140Z,41.50
2019-01-26T01:39:47.481Z,41.55
2019-01-26T01:40:23.638Z,40.71
2019-01-26T01:41:00.111Z,40.71
2019-01-26T01:41:36.415Z,41.14
2019-01-26T01:42:12.739Z,41.17
2019-01-26T01:42:48.942Z,40.99
2019-01-26T01:43:25.397Z,40.99
2019-01-26T01:44:01.572Z,40.54
2019-01-26T01:44:37.746Z,39.94
2019-01-26T01:45:16.398Z,39.54
2019-01-26T01:45:52.657Z,39.54
2019-01-26T01:46:28.973Z,39.55
2019-01-26T01:47:05.288Z,39.14
2019-01-26T01:47:41.713Z,38.66
2019-01-26T01:48:18.061Z,38.22
2019-01-26T01:48:54.371Z,38.22
2019-01-26T01:49:30.548Z,38.20
2019-01-26T01:50:06.843Z,38.18
2019-01-26T01:50:44.233Z,38.09
2019-01-26T01:51:20.554Z,38.06
2019-01-26T01:51:56.886Z,38.20
2019-01-26T01:52:34.597Z,38.34
2019-01-26T01:53:10.855Z,38.45
2019-01-26T01:53:47.071Z,38.50
2019-01-26T01:54:23.372Z,38.35
2019-01-26T01:54:59.541Z,38.21
2019-01-26T01:55:35.712Z,38.17
2019-01-26T01:56:11.810Z,38.19
2019-01-26T01:56:48.115Z,38.38
2019-01-26T01:57:24.449Z,38.19
2019-01-26T01:58:00.557Z,38.17
2019-01-26T01:58:37.997Z,38.50
2019-01-26T01:59:14.400Z,39.05
2019-01-26T01:59:50.782Z,38.80
2019-01-26T02:00:27.498Z,38.08
2019-01-26T02:01:03.931Z,38.08
2019-01-26T02:01:40.101Z,38.21
2019-01-26T02:02:16.339Z,38.36
2019-01-26T02:02:52.775Z,38.70
2019-01-26T02:03:29.036Z,38.69
2019-01-26T02:04:06.454Z,38.89
2019-01-26T02:04:42.751Z,38.65
2019-01-26T02:05:19.050Z,38.30
2019-01-26T02:05:55.268Z,38.33
2019-01-26T02:06:31.555Z,38.39
2019-01-26T02:07:08.121Z,38.48
2019-01-26T02:07:44.510Z,38.34
2019-01-26T02:08:20.876Z,38.32
2019-01-26T02:08:57.272Z,38.22
2019-01-26T02:09:33.426Z,38.21
2019-01-26T02:10:10.441Z,38.09
2019-01-26T02:10:46.667Z,37.61
2019-01-26T02:11:22.923Z,37.23
2019-01-26T02:11:59.118Z,37.18
2019-01-26T02:12:35.414Z,37.28
2019-01-26T02:13:11.739Z,37.62
2019-01-26T02:13:47.808Z,37.78
2019-01-26T02:14:24.001Z,37.63
2019-01-26T02:15:00.430Z,37.63
2019-01-26T02:15:36.623Z,37.59
2019-01-26T02:16:12.947Z,37.46
2019-01-26T02:16:50.257Z,37.40
2019-01-26T02:17:26.555Z,37.59
2019-01-26T02:18:02.805Z,37.48
2019-01-26T02:18:39.060Z,37.50
2019-01-26T02:19:15.168Z,37.37
2019-01-26T02:19:51.235Z,37.29
2019-01-26T02:20:27.467Z,37.18
2019-01-26T02:21:04.172Z,37.03
2019-01-26T02:21:40.467Z,37.07
2019-01-26T02:22:16.570Z,37.10
2019-01-26T02:22:52.846Z,37.13
2019-01-26T02:23:29.101Z,37.17
2019-01-26T02:24:05.354Z,37.23
2019-01-26T02:24:41.391Z,37.36
2019-01-26T02:25:17.387Z,37.35
2019-01-26T02:25:53.609Z,37.53
2019-01-26T02:26:29.739Z,37.21
2019-01-26T02:27:06.055Z,37.16
2019-01-26T02:27:42.286Z,37.01
2019-01-26T02:28:18.558Z,36.79
2019-01-26T02:28:54.886Z,36.61
2019-01-26T02:29:30.985Z,36.38
2019-01-26T02:30:08.370Z,36.29
2019-01-26T02:30:44.764Z,36.29
2019-01-26T02:31:21.114Z,36.28
2019-01-26T02:31:57.223Z,36.32
2019-01-26T02:32:33.464Z,36.21
2019-01-26T02:33:09.613Z,36.23
2019-01-26T02:33:45.720Z,36.15
2019-01-26T02:34:22.077Z,36.30
2019-01-26T02:34:58.313Z,36.40
2019-01-26T02:35:34.410Z,36.67
2019-01-26T02:36:10.702Z,36.59
2019-01-26T02:36:46.976Z,36.60
2019-01-26T02:37:23.127Z,36.44
2019-01-26T02:37:59.188Z,36.51
2019-01-26T02:38:35.360Z,36.50
2019-01-26T02:39:11.416Z,36.31
2019-01-26T02:39:47.664Z,35.67
2019-01-26T02:40:23.929Z,35.77
2019-01-26T02:41:00.046Z,35.80
2019-01-26T02:41:36.227Z,35.77
2019-01-26T02:42:12.522Z,35.82
2019-01-26T02:42:48.679Z,35.99
2019-01-26T02:43:24.797Z,36.01
2019-01-26T02:44:00.890Z,35.97
2019-01-26T02:44:37.289Z,35.83
2019-01-26T02:45:14.110Z,35.92
2019-01-26T02:45:50.459Z,36.17
2019-01-26T02:46:26.719Z,36.16
2019-01-26T02:47:02.759Z,36.27
2019-01-26T02:47:38.872Z,36.40
2019-01-26T02:48:15.139Z,36.72
2019-01-26T02:48:51.247Z,36.60
2019-01-26T02:49:27.528Z,36.44
2019-01-26T02:50:03.934Z,36.51
2019-01-26T02:50:40.150Z,36.52
2019-01-26T02:51:16.318Z,36.56
2019-01-26T02:51:52.489Z,36.63
2019-01-26T02:52:28.718Z,36.75
2019-01-26T02:53:05.002Z,36.74
2019-01-26T02:53:41.123Z,36.57
2019-01-26T02:54:20.105Z,36.01
2019-01-26T02:54:56.141Z,35.93
2019-01-26T02:55:32.198Z,36.31
2019-01-26T02:56:08.436Z,36.64
2019-01-26T02:56:44.572Z,36.51
2019-01-26T02:57:20.660Z,36.66
2019-01-26T02:57:56.964Z,36.55
2019-01-26T02:58:33.019Z,36.49
2019-01-26T02:59:09.386Z,36.63
2019-01-26T02:59:45.532Z,36.75
2019-01-26T03:00:23.866Z,37.01
2019-01-26T03:01:00.095Z,37.17
2019-01-26T03:01:36.136Z,37.00
2019-01-26T03:02:12.375Z,36.74
2019-01-26T03:02:48.524Z,36.49
2019-01-26T03:03:24.922Z,36.50
2019-01-26T03:04:01.016Z,36.67
2019-01-26T03:04:37.277Z,37.00
2019-01-26T03:05:13.385Z,36.40
2019-01-26T03:05:49.869Z,36.21
2019-01-26T03:06:26.121Z,36.08
2019-01-26T03:07:02.241Z,36.53
2019-01-26T03:07:38.517Z,36.38
2019-01-26T03:08:14.654Z,36.26
2019-01-26T03:08:50.880Z,36.13
2019-01-26T03:09:27.112Z,36.00
2019-01-26T03:10:03.211Z,36.16
2019-01-26T03:10:39.323Z,35.99
2019-01-26T03:11:15.603Z,35.48
2019-01-26T03:11:51.718Z,35.37
2019-01-26T03:12:27.740Z,35.31
2019-01-26T03:13:03.812Z,35.30
2019-01-26T03:13:40.069Z,35.01
2019-01-26T03:14:16.351Z,35.01
2019-01-26T03:14:52.637Z,35.14
2019-01-26T03:15:28.836Z,35.15
2019-01-26T03:16:04.980Z,35.04
2019-01-26T03:16:41.260Z,34.87
2019-01-26T03:17:17.418Z,34.92
2019-01-26T03:17:53.748Z,35.47
2019-01-26T03:18:30.061Z,35.47
2019-01-26T03:19:06.711Z,35.57
2019-01-26T03:19:43.019Z,35.50
2019-01-26T03:20:19.599Z,35.43
2019-01-26T03:20:55.912Z,35.58
2019-01-26T03:21:32.198Z,35.81
2019-01-26T03:22:08.417Z,35.82
2019-01-26T03:22:44.717Z,35.70
2019-01-26T03:23:20.729Z,35.43
2019-01-26T03:23:56.700Z,35.41
2019-01-26T03:24:32.833Z,34.89
2019-01-26T03:25:09.387Z,34.79
2019-01-26T03:25:45.514Z,34.89
2019-01-26T03:26:21.726Z,34.99
2019-01-26T03:26:58.076Z,34.87
2019-01-26T03:27:34.180Z,34.86
2019-01-26T03:28:10.204Z,34.91
2019-01-26T03:28:46.444Z,34.89
2019-01-26T03:29:22.741Z,34.94
2019-01-26T03:29:59.103Z,34.93
2019-01-26T03:30:35.195Z,34.75
2019-01-26T03:31:11.391Z,34.95
2019-01-26T03:31:47.697Z,34.92
2019-01-26T03:32:23.956Z,34.83
2019-01-26T03:33:00.201Z,35.00
2019-01-26T03:33:36.351Z,34.91
2019-01-26T03:34:12.689Z,34.60
2019-01-26T03:34:48.959Z,34.62
2019-01-26T03:35:25.357Z,34.65
2019-01-26T03:36:01.619Z,34.60
2019-01-26T03:36:37.925Z,34.66
2019-01-26T03:37:13.993Z,34.46
2019-01-26T03:37:50.145Z,34.35
2019-01-26T03:38:26.343Z,34.41
2019-01-26T03:39:02.561Z,34.64
2019-01-26T03:39:38.768Z,34.67
2019-01-26T03:40:16.176Z,34.59
2019-01-26T03:40:52.332Z,34.27
2019-01-26T03:41:28.467Z,33.91
2019-01-26T03:42:04.717Z,33.91
2019-01-26T03:42:41.383Z,33.85
2019-01-26T03:43:17.659Z,33.85
2019-01-26T03:43:53.739Z,34.03
2019-01-26T03:44:29.803Z,34.28
2019-01-26T03:45:06.348Z,34.42
2019-01-26T03:45:42.306Z,34.30
2019-01-26T03:46:18.480Z,34.33
2019-01-26T03:46:54.911Z,34.24
2019-01-26T03:47:31.182Z,34.22
2019-01-26T03:48:07.496Z,34.45
2019-01-26T03:48:43.674Z,34.30
2019-01-26T03:49:19.707Z,34.15
2019-01-26T03:49:56.228Z,34.11
2019-01-26T03:50:32.487Z,34.19
2019-01-26T03:51:08.707Z,34.18
2019-01-26T03:51:44.824Z,34.11
2019-01-26T03:52:20.819Z,34.28
2019-01-26T03:52:56.957Z,34.39
2019-01-26T03:53:33.142Z,34.43
2019-01-26T03:54:09.331Z,34.21
2019-01-26T03:54:45.554Z,33.91
2019-01-26T03:55:22.451Z,33.89
2019-01-26T03:55:58.831Z,33.90
2019-01-26T03:56:34.973Z,33.94
2019-01-26T03:57:11.228Z,34.21
2019-01-26T03:57:47.357Z,34.22
2019-01-26T03:58:23.429Z,34.21
2019-01-26T03:58:59.718Z,33.81
2019-01-26T03:59:36.164Z,33.31
2019-01-26T04:00:20.741Z,33.13
2019-01-26T04:00:56.918Z,33.27
2019-01-26T04:01:33.187Z,33.57
2019-01-26T04:02:09.238Z,33.44
2019-01-26T04:02:45.561Z,33.77
2019-01-26T04:03:21.843Z,33.93
2019-01-26T04:03:57.897Z,33.86
2019-01-26T04:04:34.114Z,33.76
2019-01-26T04:05:10.797Z,33.35
2019-01-26T04:05:47.006Z,33.30
2019-01-26T04:06:23.076Z,33.43
2019-01-26T04:06:59.163Z,33.44
2019-01-26T04:07:35.335Z,33.65
2019-01-26T04:08:11.680Z,33.47
2019-01-26T04:08:47.777Z,33.35
2019-01-26T04:09:23.833Z,33.53
2019-01-26T04:10:00.096Z,33.76
2019-01-26T04:10:36.283Z,33.68
2019-01-26T04:11:12.527Z,33.58
2019-01-26T04:11:48.661Z,33.84
2019-01-26T04:12:25.146Z,34.04
2019-01-26T04:13:01.236Z,34.11
2019-01-26T04:13:37.335Z,34.16
2019-01-26T04:14:13.530Z,34.35
2019-01-26T04:14:49.750Z,34.35
2019-01-26T04:15:25.814Z,34.18
2019-01-26T04:16:01.934Z,34.14
2019-01-26T04:16:38.004Z,34.00
2019-01-26T04:17:21.621Z,33.88
2019-01-26T04:17:52.230Z,33.96
2019-01-26T04:18:28.516Z,34.16
2019-01-26T04:19:04.958Z,34.62
2019-01-26T04:19:41.121Z,34.70
2019-01-26T04:20:19.307Z,34.74
2019-01-26T04:20:55.540Z,34.75
2019-01-26T04:21:31.733Z,34.74
2019-01-26T04:22:07.998Z,34.83
2019-01-26T04:22:44.197Z,35.07
2019-01-26T04:23:20.494Z,35.39
2019-01-26T04:23:56.678Z,35.63
2019-01-26T04:24:33.018Z,35.41
2019-01-26T04:25:09.289Z,35.35
2019-01-26T04:25:45.453Z,35.38
2019-01-26T04:26:21.661Z,34.57
2019-01-26T04:26:57.905Z,34.58
2019-01-26T04:27:34.273Z,34.53
2019-01-26T04:28:10.453Z,34.56
2019-01-26T04:28:46.752Z,34.56
2019-01-26T04:29:22.785Z,34.82
2019-01-26T04:29:59.054Z,35.05
2019-01-26T04:30:35.532Z,35.40
2019-01-26T04:31:11.790Z,35.46
2019-01-26T04:31:47.969Z,35.28
2019-01-26T04:32:24.143Z,35.30
2019-01-26T04:33:00.330Z,35.47
2019-01-26T04:33:36.540Z,35.44
2019-01-26T04:34:12.944Z,35.38
2019-01-26T04:34:49.196Z,35.35
2019-01-26T04:35:25.312Z,35.29
2019-01-26T04:36:01.389Z,35.35
2019-01-26T04:36:37.594Z,35.62
2019-01-26T04:37:13.671Z,35.56
2019-01-26T04:37:49.724Z,35.10
2019-01-26T04:38:26.037Z,35.22
2019-01-26T04:39:02.087Z,35.54
2019-01-26T04:39:38.329Z,35.58
2019-01-26T04:40:15.937Z,35.77
2019-01-26T04:40:52.057Z,35.41
2019-01-26T04:41:28.351Z,35.26
2019-01-26T04:42:04.474Z,35.10
2019-01-26T04:42:40.810Z,35.12
2019-01-26T04:43:16.878Z,35.20
2019-01-26T04:43:53.006Z,35.01
2019-01-26T04:44:29.382Z,34.47
2019-01-26T04:45:05.870Z,34.18
2019-01-26T04:45:42.219Z,34.24
2019-01-26T04:46:19.569Z,34.43
2019-01-26T04:46:55.611Z,34.39
2019-01-26T04:47:31.817Z,34.24
2019-01-26T04:48:08.106Z,34.13
2019-01-26T04:48:44.140Z,33.85
2019-01-26T04:49:20.512Z,33.67
2019-01-26T04:49:56.680Z,33.62
2019-01-26T04:50:32.908Z,33.83
2019-01-26T04:51:09.236Z,34.07
2019-01-26T04:51:45.408Z,34.09
2019-01-26T04:52:21.622Z,33.97
2019-01-26T04:52:57.645Z,33.68
2019-01-26T04:53:33.745Z,33.51
2019-01-26T04:54:10.063Z,33.47
2019-01-26T04:54:46.176Z,33.30
2019-01-26T04:55:22.738Z,32.81
2019-01-26T04:55:59.122Z,32.78
2019-01-26T04:56:35.263Z,32.76
2019-01-26T04:57:11.395Z,32.71
2019-01-26T04:57:47.671Z,32.75
2019-01-26T04:58:24.080Z,32.87
2019-01-26T04:59:00.207Z,32.94
2019-01-26T04:59:36.623Z,33.52
2019-01-26T05:00:16.863Z,33.68
2019-01-26T05:00:52.909Z,33.63
2019-01-26T05:01:29.207Z,33.49
2019-01-26T05:02:05.324Z,33.55
2019-01-26T05:02:41.606Z,33.47
2019-01-26T05:03:17.947Z,33.19
2019-01-26T05:03:54.519Z,33.00
2019-01-26T05:04:30.635Z,32.91
2019-01-26T05:05:07.158Z,32.95
2019-01-26T05:05:43.374Z,32.94
2019-01-26T05:06:19.566Z,32.87
2019-01-26T05:06:55.730Z,33.02
2019-01-26T05:07:31.978Z,33.35
2019-01-26T05:08:08.280Z,33.34
2019-01-26T05:08:44.554Z,33.16
2019-01-26T05:09:20.733Z,33.35
2019-01-26T05:09:56.928Z,33.40
2019-01-26T05:10:33.252Z,33.39
2019-01-26T05:11:09.356Z,33.45
2019-01-26T05:11:45.456Z,33.51
2019-01-26T05:12:21.630Z,33.47
2019-01-26T05:12:58.013Z,33.51
2019-01-26T05:13:34.169Z,33.54
2019-01-26T05:14:10.275Z,33.46
2019-01-26T05:14:46.562Z,33.42
2019-01-26T05:15:22.874Z,33.38
2019-01-26T05:15:59.154Z,33.39
2019-01-26T05:16:35.295Z,33.53
2019-01-26T05:17:11.608Z,33.66
2019-01-26T05:17:48.099Z,33.45
2019-01-26T05:18:24.378Z,32.97
2019-01-26T05:19:00.490Z,32.93
2019-01-26T05:19:36.892Z,32.91
2019-01-26T05:20:16.149Z,33.16
2019-01-26T05:20:52.289Z,33.42
2019-01-26T05:21:28.428Z,33.56
2019-01-26T05:22:05.022Z,33.70
2019-01-26T05:22:41.215Z,34.01
2019-01-26T05:23:17.359Z,33.79
2019-01-26T05:23:53.487Z,33.66
2019-01-26T05:24:29.761Z,33.85
2019-01-26T05:25:06.661Z,33.76
2019-01-26T05:25:42.886Z,33.80
2019-01-26T05:26:19.110Z,33.83
2019-01-26T05:26:55.086Z,33.75
2019-01-26T05:27:31.423Z,33.58
2019-01-26T05:28:07.773Z,33.62
2019-01-26T05:28:43.935Z,33.91
2019-01-26T05:29:19.981Z,33.97
2019-01-26T05:29:56.145Z,34.08
2019-01-26T05:30:32.637Z,33.88
2019-01-26T05:31:08.717Z,33.54
2019-01-26T05:31:44.913Z,33.56
2019-01-26T05:32:21.026Z,33.53
2019-01-26T05:32:57.210Z,33.60
2019-01-26T05:33:33.293Z,33.82
2019-01-26T05:34:09.416Z,34.15
2019-01-26T05:34:45.768Z,33.99
2019-01-26T05:35:22.011Z,34.11
2019-01-26T05:35:58.052Z,33.91
2019-01-26T05:36:34.178Z,33.71
2019-01-26T05:37:10.266Z,33.68
2019-01-26T05:37:46.229Z,33.89
2019-01-26T05:38:22.221Z,34.01
2019-01-26T05:38:58.733Z,34.11
2019-01-26T05:39:34.948Z,34.22
2019-01-26T05:40:13.559Z,34.63
2019-01-26T05:40:49.757Z,34.43
2019-01-26T05:41:25.870Z,34.63
2019-01-26T05:42:02.092Z,34.69
2019-01-26T05:42:38.264Z,34.61
2019-01-26T05:43:14.377Z,34.70
2019-01-26T05:43:50.705Z,34.79
2019-01-26T05:44:26.824Z,35.04
2019-01-26T05:45:03.127Z,35.04
2019-01-26T05:45:39.386Z,34.74
2019-01-26T05:46:15.535Z,34.71
2019-01-26T05:46:51.795Z,34.69
2019-01-26T05:47:27.958Z,34.78
2019-01-26T05:48:03.899Z,35.28
2019-01-26T05:48:40.261Z,35.57
2019-01-26T05:49:16.537Z,35.99
2019-01-26T05:49:52.740Z,36.15
2019-01-26T05:50:29.595Z,36.25
2019-01-26T05:51:06.145Z,36.34
2019-01-26T05:51:42.474Z,36.38
2019-01-26T05:52:18.553Z,36.42
2019-01-26T05:52:54.744Z,36.18
2019-01-26T05:53:30.947Z,36.02
2019-01-26T05:54:07.338Z,35.90
2019-01-26T05:54:43.486Z,35.91
2019-01-26T05:55:19.612Z,36.10
2019-01-26T05:55:55.694Z,36.13
2019-01-26T05:56:31.732Z,36.61
2019-01-26T05:57:07.934Z,36.45
2019-01-26T05:57:44.025Z,36.23
2019-01-26T05:58:20.120Z,36.20
2019-01-26T05:58:57.878Z,36.27
2019-01-26T05:59:34.152Z,36.30
2019-01-26T06:00:12.651Z,36.13
2019-01-26T06:00:48.794Z,35.50
2019-01-26T06:01:24.880Z,35.46
2019-01-26T06:02:01.068Z,35.39
2019-01-26T06:02:37.264Z,35.33
2019-01-26T06:03:13.277Z,35.28
2019-01-26T06:03:49.602Z,35.43
2019-01-26T06:04:25.807Z,35.20
2019-01-26T06:05:02.098Z,35.13
2019-01-26T06:05:38.181Z,35.29
2019-01-26T06:06:14.493Z,35.52
2019-01-26T06:06:50.533Z,35.67
2019-01-26T06:07:26.701Z,35.69
2019-01-26T06:08:02.810Z,35.73
2019-01-26T06:08:38.979Z,35.71
2019-01-26T06:09:15.220Z,35.53
2019-01-26T06:09:51.455Z,35.41
2019-01-26T06:10:27.793Z,35.60
2019-01-26T06:11:04.057Z,35.90
2019-01-26T06:11:40.418Z,35.88
2019-01-26T06:12:16.678Z,35.92
2019-01-26T06:12:52.913Z,36.12
2019-01-26T06:13:29.174Z,36.03
2019-01-26T06:14:05.382Z,35.90
2019-01-26T06:14:41.725Z,36.01
2019-01-26T06:15:18.037Z,36.07
2019-01-26T06:15:54.147Z,36.18
2019-01-26T06:16:30.184Z,36.19
2019-01-26T06:17:06.634Z,36.16
2019-01-26T06:17:42.717Z,36.12
2019-01-26T06:18:18.941Z,36.51
2019-01-26T06:18:55.155Z,36.71
2019-01-26T06:19:31.233Z,36.72
2019-01-26T06:20:08.380Z,36.72
2019-01-26T06:20:44.584Z,37.07
2019-01-26T06:21:20.809Z,37.21
2019-01-26T06:21:56.823Z,37.35
2019-01-26T06:22:32.828Z,37.33
2019-01-26T06:23:08.940Z,37.44
2019-01-26T06:23:45.128Z,37.51
2019-01-26T06:24:21.300Z,37.49
2019-01-26T06:24:57.517Z,37.66
2019-01-26T06:25:33.566Z,37.27
2019-01-26T06:26:09.771Z,36.97
2019-01-26T06:26:46.416Z,36.96
2019-01-26T06:27:23.081Z,37.08
2019-01-26T06:27:59.207Z,37.37
2019-01-26T06:28:35.335Z,37.46
2019-01-26T06:29:11.372Z,37.83
2019-01-26T06:29:47.675Z,37.75
2019-01-26T06:30:25.822Z,37.77
2019-01-26T06:31:01.906Z,37.84
2019-01-26T06:31:38.076Z,37.90
2019-01-26T06:32:14.510Z,37.94
2019-01-26T06:32:50.772Z,38.11
2019-01-26T06:33:26.807Z,37.99
2019-01-26T06:34:03.146Z,37.98
2019-01-26T06:34:39.253Z,37.86
2019-01-26T06:35:15.513Z,37.80
2019-01-26T06:35:51.810Z,37.83
2019-01-26T06:36:28.006Z,37.92
2019-01-26T06:37:04.148Z,37.88
2019-01-26T06:37:40.387Z,38.15
2019-01-26T06:38:16.689Z,38.21
2019-01-26T06:38:53.573Z,38.22
2019-01-26T06:39:29.724Z,38.44
2019-01-26T06:40:06.598Z,38.54
2019-01-26T06:40:42.845Z,38.47
2019-01-26T06:41:19.174Z,38.18
2019-01-26T06:41:55.512Z,37.71
2019-01-26T06:42:31.602Z,37.42
2019-01-26T06:43:07.632Z,37.31
2019-01-26T06:43:43.837Z,36.88
2019-01-26T06:44:20.030Z,36.61
2019-01-26T06:44:56.253Z,36.40
2019-01-26T06:45:32.512Z,36.71
2019-01-26T06:46:08.632Z,37.23
2019-01-26T06:46:44.900Z,37.54
2019-01-26T06:47:21.180Z,37.88
2019-01-26T06:48:02.038Z,38.05
2019-01-26T06:48:35.173Z,38.02
2019-01-26T06:49:11.288Z,38.13
2019-01-26T06:49:47.603Z,38.00
2019-01-26T06:50:27.544Z,37.40
2019-01-26T06:51:03.666Z,37.35
2019-01-26T06:51:54.723Z,37.47
2019-01-26T06:52:30.871Z,37.54
2019-01-26T06:53:06.991Z,37.65
2019-01-26T06:53:43.279Z,37.98
2019-01-26T06:54:19.369Z,38.00
2019-01-26T06:54:55.449Z,37.91
2019-01-26T06:55:31.554Z,38.21
2019-01-26T06:56:07.776Z,38.25
2019-01-26T06:56:44.062Z,38.05
2019-01-26T06:57:20.223Z,38.11
2019-01-26T06:57:56.361Z,37.80
2019-01-26T06:58:32.637Z,37.54
2019-01-26T06:59:08.750Z,37.51
2019-01-26T06:59:44.868Z,37.72
2019-01-26T07:00:27.549Z,37.87
2019-01-26T07:01:03.681Z,37.97
2019-01-26T07:01:39.968Z,38.12
2019-01-26T07:02:16.117Z,38.47
2019-01-26T07:02:52.505Z,38.61
2019-01-26T07:03:28.732Z,38.73
2019-01-26T07:04:05.646Z,38.70
2019-01-26T07:04:46.646Z,37.78
2019-01-26T07:05:32.183Z,37.64
2019-01-26T07:06:17.704Z,37.67
2019-01-26T07:07:12.134Z,37.37
2019-01-26T07:07:48.480Z,37.49
2019-01-26T07:08:25.017Z,37.55
2019-01-26T07:09:01.237Z,37.56
2019-01-26T07:09:37.387Z,37.79
2019-01-26T07:10:13.650Z,38.08
2019-01-26T07:10:49.701Z,37.94
2019-01-26T07:11:25.883Z,38.01
2019-01-26T07:12:02.129Z,38.03
2019-01-26T07:12:38.629Z,38.21
2019-01-26T07:13:14.752Z,38.18
2019-01-26T07:13:50.832Z,38.27
2019-01-26T07:14:27.143Z,38.38
2019-01-26T07:15:03.440Z,38.29
2019-01-26T07:15:39.813Z,38.07
2019-01-26T07:16:18.026Z,38.21
2019-01-26T07:16:54.139Z,38.86
2019-01-26T07:17:31.830Z,38.88
2019-01-26T07:18:09.503Z,38.58
2019-01-26T07:18:45.841Z,38.43
2019-01-26T07:19:22.421Z,38.50
2019-01-26T07:19:58.862Z,38.64
2019-01-26T07:20:35.192Z,38.49
2019-01-26T07:21:11.563Z,38.36
2019-01-26T07:21:47.642Z,38.38
2019-01-26T07:22:23.729Z,38.77
2019-01-26T07:22:59.806Z,38.86
2019-01-26T07:23:35.974Z,38.76
2019-01-26T07:24:12.228Z,39.09
2019-01-26T07:24:48.242Z,39.07
2019-01-26T07:25:24.319Z,39.23
2019-01-26T07:26:00.366Z,39.42
2019-01-26T07:26:36.560Z,39.33
2019-01-26T07:27:12.585Z,39.37
2019-01-26T07:27:49.102Z,39.50
2019-01-26T07:28:25.434Z,39.50
2019-01-26T07:29:02.854Z,39.41
2019-01-26T07:29:38.851Z,39.49
2019-01-26T07:30:16.854Z,39.36
2019-01-26T07:30:52.939Z,39.72
2019-01-26T07:31:29.109Z,39.73
2019-01-26T07:32:05.277Z,39.29
2019-01-26T07:32:41.427Z,39.52
2019-01-26T07:33:17.741Z,39.91
2019-01-26T07:33:54.060Z,39.85
2019-01-26T07:34:30.119Z,40.16
2019-01-26T07:35:06.347Z,39.90
2019-01-26T07:35:42.638Z,39.88
2019-01-26T07:36:18.780Z,39.96
2019-01-26T07:36:55.099Z,39.79
2019-01-26T07:37:32.449Z,39.94
2019-01-26T07:38:13.536Z,40.27
2019-01-26T07:38:46.758Z,40.20
2019-01-26T07:39:22.797Z,40.30
2019-01-26T07:39:59.066Z,40.24
2019-01-26T07:40:35.566Z,39.85
2019-01-26T07:41:11.681Z,39.86
2019-01-26T07:41:47.863Z,40.06
2019-01-26T07:42:23.865Z,40.06
2019-01-26T07:42:59.894Z,40.32
2019-01-26T07:43:36.093Z,40.30
2019-01-26T07:44:12.147Z,40.16
2019-01-26T07:44:48.485Z,40.40
2019-01-26T07:45:24.874Z,40.22
2019-01-26T07:46:01.119Z,40.20
2019-01-26T07:46:37.410Z,40.17
2019-01-26T07:47:13.722Z,40.14
2019-01-26T07:47:49.827Z,40.19
2019-01-26T07:48:26.080Z,40.33
2019-01-26T07:49:02.101Z,40.60
2019-01-26T07:49:38.177Z,40.51
2019-01-26T07:50:17.526Z,40.73
2019-01-26T07:50:53.932Z,40.88
2019-01-26T07:51:30.056Z,40.91
2019-01-26T07:52:06.352Z,40.93
2019-01-26T07:52:42.457Z,41.11
2019-01-26T07:53:18.699Z,41.25
2019-01-26T07:53:54.937Z,41.40
2019-01-26T07:54:30.970Z,41.46
2019-01-26T07:55:07.928Z,41.44
2019-01-26T07:55:44.258Z,40.71
2019-01-26T07:56:20.355Z,40.75
2019-01-26T07:56:56.638Z,40.92